sensor_id;sensor_type;location;lat;lon;timestamp;temperature;humidity
9049;DHT22;4559;47.252;9.592;2022-07-29T00:02:01;19.40;99.90
9049;DHT22;4559;47.252;9.592;2022-07-29T00:04:27;19.40;99.90
9049;DHT22;4559;47.252;9.592;2022-07-29T00:06:52;19.40;99.90
9049;DHT22;4559;47.252;9.592;2022-07-29T00:09:18;19.40;99.90
9049;DHT22;4559;47.252;9.592;2022-07-29T00:11:44;19.30;99.90
9049;DHT22;4559;47.252;9.592;2022-07-29T00:14:09;19.30;99.90
9049;DHT22;4559;47.252;9.592;2022-07-29T00:16:35;19.30;99.90
9049;DHT22;4559;47.252;9.592;2022-07-29T00:19:01;19.30;99.90
9049;DHT22;4559;47.252;9.592;2022-07-29T00:21:27;19.30;99.90
9049;DHT22;4559;47.252;9.592;2022-07-29T00:23:53;19.30;99.90
9049;DHT22;4559;47.252;9.592;2022-07-29T00:26:18;19.30;99.90
9049;DHT22;4559;47.252;9.592;2022-07-29T00:28:44;19.30;99.90
9049;DHT22;4559;47.252;9.592;2022-07-29T00:31:09;19.20;99.90
9049;DHT22;4559;47.252;9.592;2022-07-29T00:33:35;19.20;99.90
9049;DHT22;4559;47.252;9.592;2022-07-29T00:36:01;19.20;99.90
9049;DHT22;4559;47.252;9.592;2022-07-29T00:38:27;19.20;99.90
9049;DHT22;4559;47.252;9.592;2022-07-29T00:40:52;19.10;99.90
9049;DHT22;4559;47.252;9.592;2022-07-29T00:43:18;19.10;99.90
9049;DHT22;4559;47.252;9.592;2022-07-29T00:45:44;19.10;99.90
9049;DHT22;4559;47.252;9.592;2022-07-29T00:48:10;19.10;99.90
9049;DHT22;4559;47.252;9.592;2022-07-29T00:50:36;19.10;99.90
9049;DHT22;4559;47.252;9.592;2022-07-29T00:53:03;19.10;99.90
9049;DHT22;4559;47.252;9.592;2022-07-29T00:55:30;19.00;99.90
9049;DHT22;4559;47.252;9.592;2022-07-29T00:57:56;19.00;99.90
9049;DHT22;4559;47.252;9.592;2022-07-29T01:00:24;19.00;99.90
9049;DHT22;4559;47.252;9.592;2022-07-29T01:02:51;18.90;99.90
9049;DHT22;4559;47.252;9.592;2022-07-29T01:05:19;18.90;99.90
9049;DHT22;4559;47.252;9.592;2022-07-29T01:07:47;18.90;99.90
9049;DHT22;4559;47.252;9.592;2022-07-29T01:10:15;18.80;99.90
9049;DHT22;4559;47.252;9.592;2022-07-29T01:12:43;18.80;99.90
9049;DHT22;4559;47.252;9.592;2022-07-29T01:15:09;18.90;99.90
9049;DHT22;4559;47.252;9.592;2022-07-29T01:20:57;18.80;99.90
9049;DHT22;4559;47.252;9.592;2022-07-29T01:30:46;18.70;99.90
9049;DHT22;4559;47.252;9.592;2022-07-29T01:33:15;18.70;99.90
9049;DHT22;4559;47.252;9.592;2022-07-29T01:36:05;18.70;99.90
9049;DHT22;4559;47.252;9.592;2022-07-29T01:38:33;18.60;99.90
9049;DHT22;4559;47.252;9.592;2022-07-29T01:41:08;18.60;99.90
9049;DHT22;4559;47.252;9.592;2022-07-29T01:43:54;18.60;99.90
9049;DHT22;4559;47.252;9.592;2022-07-29T01:46:27;18.50;99.90
9049;DHT22;4559;47.252;9.592;2022-07-29T01:48:59;18.50;99.90
9049;DHT22;4559;47.252;9.592;2022-07-29T01:51:38;18.40;99.90
9049;DHT22;4559;47.252;9.592;2022-07-29T01:57:09;18.30;99.90
9049;DHT22;4559;47.252;9.592;2022-07-29T01:59:37;18.30;99.90
9049;DHT22;4559;47.252;9.592;2022-07-29T02:02:04;18.30;99.90
9049;DHT22;4559;47.252;9.592;2022-07-29T02:04:35;18.20;99.90
9049;DHT22;4559;47.252;9.592;2022-07-29T02:07:07;18.10;99.90
9049;DHT22;4559;47.252;9.592;2022-07-29T02:09:36;18.10;99.90
9049;DHT22;4559;47.252;9.592;2022-07-29T02:12:04;18.10;99.90
9049;DHT22;4559;47.252;9.592;2022-07-29T02:14:35;18.10;99.90
9049;DHT22;4559;47.252;9.592;2022-07-29T02:17:02;18.10;99.90
9049;DHT22;4559;47.252;9.592;2022-07-29T02:19:29;18.00;99.90
9049;DHT22;4559;47.252;9.592;2022-07-29T02:21:58;18.10;99.90
9049;DHT22;4559;47.252;9.592;2022-07-29T02:24:25;18.00;99.90
9049;DHT22;4559;47.252;9.592;2022-07-29T02:26:55;18.00;99.90
9049;DHT22;4559;47.252;9.592;2022-07-29T02:29:26;18.00;99.90
9049;DHT22;4559;47.252;9.592;2022-07-29T02:31:52;18.00;99.90
9049;DHT22;4559;47.252;9.592;2022-07-29T02:34:20;17.90;99.90
9049;DHT22;4559;47.252;9.592;2022-07-29T02:36:48;17.90;99.90
9049;DHT22;4559;47.252;9.592;2022-07-29T02:39:14;17.90;99.90
9049;DHT22;4559;47.252;9.592;2022-07-29T02:41:44;17.80;99.90
9049;DHT22;4559;47.252;9.592;2022-07-29T02:44:14;17.90;99.90
9049;DHT22;4559;47.252;9.592;2022-07-29T02:46:50;17.80;99.90
9049;DHT22;4559;47.252;9.592;2022-07-29T02:52:09;17.80;99.90
9049;DHT22;4559;47.252;9.592;2022-07-29T02:57:22;17.80;99.90
9049;DHT22;4559;47.252;9.592;2022-07-29T02:59:52;17.70;99.90
9049;DHT22;4559;47.252;9.592;2022-07-29T03:02:20;17.70;99.90
9049;DHT22;4559;47.252;9.592;2022-07-29T03:04:47;17.70;99.90
9049;DHT22;4559;47.252;9.592;2022-07-29T03:07:15;17.70;99.90
9049;DHT22;4559;47.252;9.592;2022-07-29T03:09:44;17.70;99.90
9049;DHT22;4559;47.252;9.592;2022-07-29T03:12:11;17.70;99.90
9049;DHT22;4559;47.252;9.592;2022-07-29T03:14:37;17.80;99.90
9049;DHT22;4559;47.252;9.592;2022-07-29T03:17:03;17.80;99.90
9049;DHT22;4559;47.252;9.592;2022-07-29T03:19:29;17.70;99.90
9049;DHT22;4559;47.252;9.592;2022-07-29T03:21:57;17.70;99.90
9049;DHT22;4559;47.252;9.592;2022-07-29T03:24:35;17.70;99.90
9049;DHT22;4559;47.252;9.592;2022-07-29T03:27:02;17.70;99.90
9049;DHT22;4559;47.252;9.592;2022-07-29T03:29:28;17.70;99.90
9049;DHT22;4559;47.252;9.592;2022-07-29T03:31:54;17.70;99.90
9049;DHT22;4559;47.252;9.592;2022-07-29T03:34:20;17.70;99.90
9049;DHT22;4559;47.252;9.592;2022-07-29T03:36:46;17.70;99.90
9049;DHT22;4559;47.252;9.592;2022-07-29T03:39:12;17.70;99.90
9049;DHT22;4559;47.252;9.592;2022-07-29T03:41:41;17.70;99.90
9049;DHT22;4559;47.252;9.592;2022-07-29T03:44:08;17.70;99.90
9049;DHT22;4559;47.252;9.592;2022-07-29T03:46:35;17.70;99.90
9049;DHT22;4559;47.252;9.592;2022-07-29T03:49:04;17.70;99.90
9049;DHT22;4559;47.252;9.592;2022-07-29T03:51:30;17.60;99.90
9049;DHT22;4559;47.252;9.592;2022-07-29T03:53:56;17.60;99.90
9049;DHT22;4559;47.252;9.592;2022-07-29T03:56:22;17.60;99.90
9049;DHT22;4559;47.252;9.592;2022-07-29T03:58:52;17.60;99.90
9049;DHT22;4559;47.252;9.592;2022-07-29T04:01:19;17.60;99.90
9049;DHT22;4559;47.252;9.592;2022-07-29T04:03:46;17.60;99.90
9049;DHT22;4559;47.252;9.592;2022-07-29T04:06:12;17.60;99.90
9049;DHT22;4559;47.252;9.592;2022-07-29T04:08:37;17.60;99.90
9049;DHT22;4559;47.252;9.592;2022-07-29T04:11:04;17.60;99.90
9049;DHT22;4559;47.252;9.592;2022-07-29T04:13:31;17.60;99.90
9049;DHT22;4559;47.252;9.592;2022-07-29T04:15:56;17.60;99.90
9049;DHT22;4559;47.252;9.592;2022-07-29T04:18:22;17.50;99.90
9049;DHT22;4559;47.252;9.592;2022-07-29T04:20:48;17.50;99.90
9049;DHT22;4559;47.252;9.592;2022-07-29T04:23:14;17.50;99.90
9049;DHT22;4559;47.252;9.592;2022-07-29T04:25:40;17.50;99.90
9049;DHT22;4559;47.252;9.592;2022-07-29T04:28:07;17.60;99.90
9049;DHT22;4559;47.252;9.592;2022-07-29T04:30:34;17.50;99.90
9049;DHT22;4559;47.252;9.592;2022-07-29T04:33:08;17.50;99.90
9049;DHT22;4559;47.252;9.592;2022-07-29T04:35:36;17.50;99.90
9049;DHT22;4559;47.252;9.592;2022-07-29T04:38:03;17.50;99.90
9049;DHT22;4559;47.252;9.592;2022-07-29T04:40:28;17.50;99.90
9049;DHT22;4559;47.252;9.592;2022-07-29T04:42:54;17.60;99.90
9049;DHT22;4559;47.252;9.592;2022-07-29T04:45:20;17.60;99.90
9049;DHT22;4559;47.252;9.592;2022-07-29T04:47:45;17.60;99.90
9049;DHT22;4559;47.252;9.592;2022-07-29T04:50:11;17.70;99.90
9049;DHT22;4559;47.252;9.592;2022-07-29T04:52:37;17.70;99.90
9049;DHT22;4559;47.252;9.592;2022-07-29T04:55:04;17.70;99.90
9049;DHT22;4559;47.252;9.592;2022-07-29T04:57:30;17.80;99.90
9049;DHT22;4559;47.252;9.592;2022-07-29T04:59:55;17.90;99.90
9049;DHT22;4559;47.252;9.592;2022-07-29T05:02:21;17.90;99.90
9049;DHT22;4559;47.252;9.592;2022-07-29T05:04:47;18.00;99.90
9049;DHT22;4559;47.252;9.592;2022-07-29T05:07:13;18.10;99.90
9049;DHT22;4559;47.252;9.592;2022-07-29T05:09:39;18.10;99.90
9049;DHT22;4559;47.252;9.592;2022-07-29T05:12:05;18.30;99.90
9049;DHT22;4559;47.252;9.592;2022-07-29T05:14:31;18.30;99.90
9049;DHT22;4559;47.252;9.592;2022-07-29T05:16:57;18.30;99.90
9049;DHT22;4559;47.252;9.592;2022-07-29T05:19:23;18.40;99.90
9049;DHT22;4559;47.252;9.592;2022-07-29T05:21:49;18.40;99.90
9049;DHT22;4559;47.252;9.592;2022-07-29T05:24:15;18.40;99.90
9049;DHT22;4559;47.252;9.592;2022-07-29T05:26:41;18.50;99.90
9049;DHT22;4559;47.252;9.592;2022-07-29T05:29:07;18.50;99.90
9049;DHT22;4559;47.252;9.592;2022-07-29T05:31:33;18.50;99.90
9049;DHT22;4559;47.252;9.592;2022-07-29T05:33:59;18.60;99.90
9049;DHT22;4559;47.252;9.592;2022-07-29T05:36:24;18.60;99.90
9049;DHT22;4559;47.252;9.592;2022-07-29T05:38:50;18.50;99.90
9049;DHT22;4559;47.252;9.592;2022-07-29T05:41:17;18.60;99.90
9049;DHT22;4559;47.252;9.592;2022-07-29T05:43:43;18.60;99.90
9049;DHT22;4559;47.252;9.592;2022-07-29T05:46:08;18.70;99.90
9049;DHT22;4559;47.252;9.592;2022-07-29T05:48:34;18.80;99.90
9049;DHT22;4559;47.252;9.592;2022-07-29T05:51:00;18.80;99.90
9049;DHT22;4559;47.252;9.592;2022-07-29T05:53:25;18.80;99.90
9049;DHT22;4559;47.252;9.592;2022-07-29T05:55:51;18.90;99.90
9049;DHT22;4559;47.252;9.592;2022-07-29T05:58:17;18.90;99.90
9049;DHT22;4559;47.252;9.592;2022-07-29T06:00:43;18.90;99.90
9049;DHT22;4559;47.252;9.592;2022-07-29T06:03:09;18.90;99.90
9049;DHT22;4559;47.252;9.592;2022-07-29T06:05:34;19.00;99.90
9049;DHT22;4559;47.252;9.592;2022-07-29T06:08:00;19.00;99.90
9049;DHT22;4559;47.252;9.592;2022-07-29T06:10:26;19.00;99.90
9049;DHT22;4559;47.252;9.592;2022-07-29T06:12:52;19.00;99.90
9049;DHT22;4559;47.252;9.592;2022-07-29T06:15:17;19.00;99.90
9049;DHT22;4559;47.252;9.592;2022-07-29T06:17:43;19.00;99.90
9049;DHT22;4559;47.252;9.592;2022-07-29T06:20:09;19.00;99.90
9049;DHT22;4559;47.252;9.592;2022-07-29T06:22:35;19.00;99.90
9049;DHT22;4559;47.252;9.592;2022-07-29T06:25:01;19.00;99.90
9049;DHT22;4559;47.252;9.592;2022-07-29T06:27:27;19.00;99.90
9049;DHT22;4559;47.252;9.592;2022-07-29T06:29:53;19.00;99.90
9049;DHT22;4559;47.252;9.592;2022-07-29T06:32:19;19.00;99.90
9049;DHT22;4559;47.252;9.592;2022-07-29T06:34:45;19.10;99.90
9049;DHT22;4559;47.252;9.592;2022-07-29T06:37:10;19.10;99.90
9049;DHT22;4559;47.252;9.592;2022-07-29T06:39:36;19.10;99.90
9049;DHT22;4559;47.252;9.592;2022-07-29T06:42:03;19.10;99.90
9049;DHT22;4559;47.252;9.592;2022-07-29T06:44:32;19.10;99.90
9049;DHT22;4559;47.252;9.592;2022-07-29T06:47:01;19.10;99.90
9049;DHT22;4559;47.252;9.592;2022-07-29T06:49:27;19.20;99.90
9049;DHT22;4559;47.252;9.592;2022-07-29T06:51:54;19.20;99.90
9049;DHT22;4559;47.252;9.592;2022-07-29T06:54:20;19.20;99.90
9049;DHT22;4559;47.252;9.592;2022-07-29T06:56:47;19.20;99.90
9049;DHT22;4559;47.252;9.592;2022-07-29T06:59:13;19.20;99.90
9049;DHT22;4559;47.252;9.592;2022-07-29T07:01:40;19.10;99.90
9049;DHT22;4559;47.252;9.592;2022-07-29T07:04:06;19.20;99.90
9049;DHT22;4559;47.252;9.592;2022-07-29T07:06:33;19.30;99.90
9049;DHT22;4559;47.252;9.592;2022-07-29T07:08:59;19.40;99.90
9049;DHT22;4559;47.252;9.592;2022-07-29T07:11:25;19.40;99.90
9049;DHT22;4559;47.252;9.592;2022-07-29T07:13:50;19.50;99.90
9049;DHT22;4559;47.252;9.592;2022-07-29T07:16:16;19.50;99.90
9049;DHT22;4559;47.252;9.592;2022-07-29T07:18:42;19.50;99.90
9049;DHT22;4559;47.252;9.592;2022-07-29T07:21:07;19.50;99.90
9049;DHT22;4559;47.252;9.592;2022-07-29T07:23:33;19.60;99.90
9049;DHT22;4559;47.252;9.592;2022-07-29T07:25:59;19.60;99.90
9049;DHT22;4559;47.252;9.592;2022-07-29T07:28:24;19.80;99.90
9049;DHT22;4559;47.252;9.592;2022-07-29T07:30:50;20.00;99.90
9049;DHT22;4559;47.252;9.592;2022-07-29T07:33:16;20.20;99.90
9049;DHT22;4559;47.252;9.592;2022-07-29T07:35:41;20.40;99.90
9049;DHT22;4559;47.252;9.592;2022-07-29T07:38:07;20.40;99.90
9049;DHT22;4559;47.252;9.592;2022-07-29T07:40:33;20.50;99.90
9049;DHT22;4559;47.252;9.592;2022-07-29T07:42:58;20.60;99.90
9049;DHT22;4559;47.252;9.592;2022-07-29T07:45:24;20.70;99.90
9049;DHT22;4559;47.252;9.592;2022-07-29T07:47:50;20.70;99.90
9049;DHT22;4559;47.252;9.592;2022-07-29T07:50:15;20.70;99.90
9049;DHT22;4559;47.252;9.592;2022-07-29T07:52:50;20.70;99.90
9049;DHT22;4559;47.252;9.592;2022-07-29T07:55:17;20.70;99.90
9049;DHT22;4559;47.252;9.592;2022-07-29T07:57:43;20.60;99.90
9049;DHT22;4559;47.252;9.592;2022-07-29T08:00:10;20.60;99.90
9049;DHT22;4559;47.252;9.592;2022-07-29T08:02:37;20.60;99.90
9049;DHT22;4559;47.252;9.592;2022-07-29T08:05:03;20.50;99.90
9049;DHT22;4559;47.252;9.592;2022-07-29T08:07:29;20.50;99.90
9049;DHT22;4559;47.252;9.592;2022-07-29T08:09:54;20.30;99.90
9049;DHT22;4559;47.252;9.592;2022-07-29T08:12:20;20.20;99.90
9049;DHT22;4559;47.252;9.592;2022-07-29T08:14:45;20.20;99.90
9049;DHT22;4559;47.252;9.592;2022-07-29T08:17:11;19.90;99.90
9049;DHT22;4559;47.252;9.592;2022-07-29T08:19:37;19.70;99.90
9049;DHT22;4559;47.252;9.592;2022-07-29T08:22:02;19.70;99.90
9049;DHT22;4559;47.252;9.592;2022-07-29T08:24:28;19.70;99.90
9049;DHT22;4559;47.252;9.592;2022-07-29T08:27:10;19.70;99.90
9049;DHT22;4559;47.252;9.592;2022-07-29T08:29:36;19.70;99.90
9049;DHT22;4559;47.252;9.592;2022-07-29T08:32:02;19.70;99.90
9049;DHT22;4559;47.252;9.592;2022-07-29T08:34:28;19.70;99.90
9049;DHT22;4559;47.252;9.592;2022-07-29T08:36:54;19.80;99.90
9049;DHT22;4559;47.252;9.592;2022-07-29T08:39:20;19.80;99.90
9049;DHT22;4559;47.252;9.592;2022-07-29T08:41:46;19.80;99.90
9049;DHT22;4559;47.252;9.592;2022-07-29T08:44:13;19.80;99.90
9049;DHT22;4559;47.252;9.592;2022-07-29T08:46:40;19.90;99.90
9049;DHT22;4559;47.252;9.592;2022-07-29T08:49:06;20.00;99.90
9049;DHT22;4559;47.252;9.592;2022-07-29T08:51:33;20.10;99.90
9049;DHT22;4559;47.252;9.592;2022-07-29T08:54:02;20.20;99.90
9049;DHT22;4559;47.252;9.592;2022-07-29T08:56:28;20.20;99.90
9049;DHT22;4559;47.252;9.592;2022-07-29T08:58:54;20.10;99.90
9049;DHT22;4559;47.252;9.592;2022-07-29T09:01:23;20.10;99.90
9049;DHT22;4559;47.252;9.592;2022-07-29T09:03:49;20.20;99.90
9049;DHT22;4559;47.252;9.592;2022-07-29T09:06:18;20.20;99.90
9049;DHT22;4559;47.252;9.592;2022-07-29T09:08:44;20.30;99.90
9049;DHT22;4559;47.252;9.592;2022-07-29T09:11:11;20.40;99.90
9049;DHT22;4559;47.252;9.592;2022-07-29T09:13:37;20.50;99.90
9049;DHT22;4559;47.252;9.592;2022-07-29T09:16:03;20.50;99.90
9049;DHT22;4559;47.252;9.592;2022-07-29T09:18:42;20.50;99.90
9049;DHT22;4559;47.252;9.592;2022-07-29T09:21:12;20.60;99.90
9049;DHT22;4559;47.252;9.592;2022-07-29T09:26:32;20.80;99.90
9049;DHT22;4559;47.252;9.592;2022-07-29T09:28:59;20.90;99.90
9049;DHT22;4559;47.252;9.592;2022-07-29T09:31:35;21.00;99.90
9049;DHT22;4559;47.252;9.592;2022-07-29T09:34:01;21.10;99.90
9049;DHT22;4559;47.252;9.592;2022-07-29T09:36:27;21.30;99.90
9049;DHT22;4559;47.252;9.592;2022-07-29T09:39:00;21.50;99.90
9049;DHT22;4559;47.252;9.592;2022-07-29T09:41:27;21.90;99.90
9049;DHT22;4559;47.252;9.592;2022-07-29T09:43:56;22.20;99.90
9049;DHT22;4559;47.252;9.592;2022-07-29T09:46:23;22.70;99.90
9049;DHT22;4559;47.252;9.592;2022-07-29T09:49:09;22.90;99.90
9049;DHT22;4559;47.252;9.592;2022-07-29T09:51:36;23.20;99.90
9049;DHT22;4559;47.252;9.592;2022-07-29T09:54:21;23.40;99.90
9049;DHT22;4559;47.252;9.592;2022-07-29T09:56:48;23.60;99.90
9049;DHT22;4559;47.252;9.592;2022-07-29T09:59:14;23.80;99.90
9049;DHT22;4559;47.252;9.592;2022-07-29T10:01:40;23.90;99.90
9049;DHT22;4559;47.252;9.592;2022-07-29T10:04:06;23.90;99.90
9049;DHT22;4559;47.252;9.592;2022-07-29T10:06:32;23.90;99.90
9049;DHT22;4559;47.252;9.592;2022-07-29T10:09:08;23.90;99.90
9049;DHT22;4559;47.252;9.592;2022-07-29T10:11:34;24.10;99.90
9049;DHT22;4559;47.252;9.592;2022-07-29T10:14:02;24.20;99.90
9049;DHT22;4559;47.252;9.592;2022-07-29T10:16:28;24.50;99.90
9049;DHT22;4559;47.252;9.592;2022-07-29T10:18:58;24.70;99.90
9049;DHT22;4559;47.252;9.592;2022-07-29T10:21:25;24.90;99.90
9049;DHT22;4559;47.252;9.592;2022-07-29T10:23:52;25.20;99.90
9049;DHT22;4559;47.252;9.592;2022-07-29T10:26:19;25.40;99.90
9049;DHT22;4559;47.252;9.592;2022-07-29T10:28:45;25.50;99.90
9049;DHT22;4559;47.252;9.592;2022-07-29T10:31:19;25.60;99.90
9049;DHT22;4559;47.252;9.592;2022-07-29T10:34:18;25.80;99.90
9049;DHT22;4559;47.252;9.592;2022-07-29T10:37:20;26.10;99.90
9049;DHT22;4559;47.252;9.592;2022-07-29T10:40:15;26.40;99.90
9049;DHT22;4559;47.252;9.592;2022-07-29T10:43:14;26.70;99.90
9049;DHT22;4559;47.252;9.592;2022-07-29T10:45:42;27.00;99.90
9049;DHT22;4559;47.252;9.592;2022-07-29T10:48:07;27.30;99.90
9049;DHT22;4559;47.252;9.592;2022-07-29T10:51:00;27.40;99.90
9049;DHT22;4559;47.252;9.592;2022-07-29T10:53:45;27.50;99.90
9049;DHT22;4559;47.252;9.592;2022-07-29T11:01:48;27.60;99.90
9049;DHT22;4559;47.252;9.592;2022-07-29T11:07:11;27.80;99.90
9049;DHT22;4559;47.252;9.592;2022-07-29T11:09:38;27.80;99.90
9049;DHT22;4559;47.252;9.592;2022-07-29T11:12:45;27.90;99.70
9049;DHT22;4559;47.252;9.592;2022-07-29T11:14:58;28.10;98.60
9049;DHT22;4559;47.252;9.592;2022-07-29T11:17:24;28.20;98.60
9049;DHT22;4559;47.252;9.592;2022-07-29T11:19:50;28.30;97.70
9049;DHT22;4559;47.252;9.592;2022-07-29T11:22:35;28.40;97.90
9049;DHT22;4559;47.252;9.592;2022-07-29T11:25:14;28.50;97.30
9049;DHT22;4559;47.252;9.592;2022-07-29T11:27:40;28.60;96.90
9049;DHT22;4559;47.252;9.592;2022-07-29T11:30:06;28.70;98.00
9049;DHT22;4559;47.252;9.592;2022-07-29T11:32:37;28.80;97.50
9049;DHT22;4559;47.252;9.592;2022-07-29T11:35:18;28.80;97.60
9049;DHT22;4559;47.252;9.592;2022-07-29T11:38:22;28.80;96.90
9049;DHT22;4559;47.252;9.592;2022-07-29T11:40:33;28.90;97.20
9049;DHT22;4559;47.252;9.592;2022-07-29T11:42:58;28.90;96.80
9049;DHT22;4559;47.252;9.592;2022-07-29T11:45:25;29.00;97.40
9049;DHT22;4559;47.252;9.592;2022-07-29T11:47:56;29.00;95.80
9049;DHT22;4559;47.252;9.592;2022-07-29T11:50:28;29.00;94.70
9049;DHT22;4559;47.252;9.592;2022-07-29T11:52:55;29.10;95.50
9049;DHT22;4559;47.252;9.592;2022-07-29T11:55:23;29.00;94.40
9049;DHT22;4559;47.252;9.592;2022-07-29T11:58:00;29.00;94.90
9049;DHT22;4559;47.252;9.592;2022-07-29T12:00:33;29.00;94.40
9049;DHT22;4559;47.252;9.592;2022-07-29T12:03:02;29.00;94.00
9049;DHT22;4559;47.252;9.592;2022-07-29T12:08:19;29.10;94.20
9049;DHT22;4559;47.252;9.592;2022-07-29T12:10:46;29.10;94.70
9049;DHT22;4559;47.252;9.592;2022-07-29T12:13:13;29.10;94.80
9049;DHT22;4559;47.252;9.592;2022-07-29T12:15:41;29.00;94.10
9049;DHT22;4559;47.252;9.592;2022-07-29T12:18:17;29.00;94.90
9049;DHT22;4559;47.252;9.592;2022-07-29T12:20:44;29.00;94.10
9049;DHT22;4559;47.252;9.592;2022-07-29T12:23:10;28.90;93.10
9049;DHT22;4559;47.252;9.592;2022-07-29T12:25:41;28.90;93.00
9049;DHT22;4559;47.252;9.592;2022-07-29T12:28:09;28.80;93.30
9049;DHT22;4559;47.252;9.592;2022-07-29T12:30:42;28.90;93.30
9049;DHT22;4559;47.252;9.592;2022-07-29T12:33:24;28.90;92.80
9049;DHT22;4559;47.252;9.592;2022-07-29T12:35:54;28.90;91.70
9049;DHT22;4559;47.252;9.592;2022-07-29T12:38:20;28.80;91.50
9049;DHT22;4559;47.252;9.592;2022-07-29T12:40:47;28.70;91.90
9049;DHT22;4559;47.252;9.592;2022-07-29T12:43:22;28.60;90.50
9049;DHT22;4559;47.252;9.592;2022-07-29T12:45:51;28.40;90.00
9049;DHT22;4559;47.252;9.592;2022-07-29T12:48:18;28.30;90.20
9049;DHT22;4559;47.252;9.592;2022-07-29T12:51:00;28.20;90.30
9049;DHT22;4559;47.252;9.592;2022-07-29T12:53:27;28.00;91.00
9049;DHT22;4559;47.252;9.592;2022-07-29T12:55:54;28.00;91.10
9049;DHT22;4559;47.252;9.592;2022-07-29T12:58:36;27.90;90.10
9049;DHT22;4559;47.252;9.592;2022-07-29T13:01:06;27.80;90.70
9049;DHT22;4559;47.252;9.592;2022-07-29T13:09:12;27.50;91.90
9049;DHT22;4559;47.252;9.592;2022-07-29T13:11:56;27.30;92.00
9049;DHT22;4559;47.252;9.592;2022-07-29T13:14:41;27.20;92.50
9049;DHT22;4559;47.252;9.592;2022-07-29T13:17:09;27.10;92.70
9049;DHT22;4559;47.252;9.592;2022-07-29T13:22:16;26.90;92.80
9049;DHT22;4559;47.252;9.592;2022-07-29T13:24:55;26.80;92.90
9049;DHT22;4559;47.252;9.592;2022-07-29T13:27:26;26.60;92.60
9049;DHT22;4559;47.252;9.592;2022-07-29T13:29:53;26.40;92.90
9049;DHT22;4559;47.252;9.592;2022-07-29T13:32:22;26.20;93.00
9049;DHT22;4559;47.252;9.592;2022-07-29T13:34:48;26.10;93.10
9049;DHT22;4559;47.252;9.592;2022-07-29T13:37:13;26.00;93.50
9049;DHT22;4559;47.252;9.592;2022-07-29T13:39:39;25.90;93.50
9049;DHT22;4559;47.252;9.592;2022-07-29T13:42:06;25.80;93.30
9049;DHT22;4559;47.252;9.592;2022-07-29T13:44:32;25.60;93.70
9049;DHT22;4559;47.252;9.592;2022-07-29T13:46:58;25.50;94.10
9049;DHT22;4559;47.252;9.592;2022-07-29T13:49:25;25.40;95.00
9049;DHT22;4559;47.252;9.592;2022-07-29T13:51:50;25.30;95.50
9049;DHT22;4559;47.252;9.592;2022-07-29T13:54:16;25.10;95.80
9049;DHT22;4559;47.252;9.592;2022-07-29T13:56:42;25.00;96.20
9049;DHT22;4559;47.252;9.592;2022-07-29T13:59:07;24.90;96.70
9049;DHT22;4559;47.252;9.592;2022-07-29T14:01:34;24.80;97.80
9049;DHT22;4559;47.252;9.592;2022-07-29T14:04:00;24.60;98.90
9049;DHT22;4559;47.252;9.592;2022-07-29T14:06:25;24.40;99.90
9049;DHT22;4559;47.252;9.592;2022-07-29T14:08:51;24.20;99.90
9049;DHT22;4559;47.252;9.592;2022-07-29T14:11:17;24.10;99.90
9049;DHT22;4559;47.252;9.592;2022-07-29T14:13:42;24.00;99.90
9049;DHT22;4559;47.252;9.592;2022-07-29T14:16:08;23.80;99.90
9049;DHT22;4559;47.252;9.592;2022-07-29T14:18:34;23.70;99.90
9049;DHT22;4559;47.252;9.592;2022-07-29T14:20:59;23.60;99.90
9049;DHT22;4559;47.252;9.592;2022-07-29T14:23:25;23.50;99.90
9049;DHT22;4559;47.252;9.592;2022-07-29T14:25:51;23.20;99.90
9049;DHT22;4559;47.252;9.592;2022-07-29T14:28:17;23.00;99.90
9049;DHT22;4559;47.252;9.592;2022-07-29T14:30:42;22.80;99.90
9049;DHT22;4559;47.252;9.592;2022-07-29T14:33:08;22.70;99.90
9049;DHT22;4559;47.252;9.592;2022-07-29T14:35:34;22.60;99.90
9049;DHT22;4559;47.252;9.592;2022-07-29T14:37:59;22.50;99.90
9049;DHT22;4559;47.252;9.592;2022-07-29T14:40:25;22.50;99.90
9049;DHT22;4559;47.252;9.592;2022-07-29T14:42:51;22.50;99.90
9049;DHT22;4559;47.252;9.592;2022-07-29T14:45:16;22.40;99.90
9049;DHT22;4559;47.252;9.592;2022-07-29T14:47:42;22.40;99.90
9049;DHT22;4559;47.252;9.592;2022-07-29T14:50:09;22.20;99.90
9049;DHT22;4559;47.252;9.592;2022-07-29T14:52:35;22.10;99.90
9049;DHT22;4559;47.252;9.592;2022-07-29T14:55:00;22.00;99.90
9049;DHT22;4559;47.252;9.592;2022-07-29T14:57:26;21.80;99.90
9049;DHT22;4559;47.252;9.592;2022-07-29T14:59:51;21.80;99.90
9049;DHT22;4559;47.252;9.592;2022-07-29T15:02:17;21.80;99.90
9049;DHT22;4559;47.252;9.592;2022-07-29T15:04:43;21.70;99.90
9049;DHT22;4559;47.252;9.592;2022-07-29T15:07:11;21.70;99.90
9049;DHT22;4559;47.252;9.592;2022-07-29T15:09:36;21.70;99.90
9049;DHT22;4559;47.252;9.592;2022-07-29T15:12:02;21.60;99.90
9049;DHT22;4559;47.252;9.592;2022-07-29T15:14:28;21.60;99.90
9049;DHT22;4559;47.252;9.592;2022-07-29T15:16:54;21.60;99.90
9049;DHT22;4559;47.252;9.592;2022-07-29T15:19:19;21.50;99.90
9049;DHT22;4559;47.252;9.592;2022-07-29T15:21:45;21.50;99.90
9049;DHT22;4559;47.252;9.592;2022-07-29T15:24:11;21.50;99.90
9049;DHT22;4559;47.252;9.592;2022-07-29T15:26:36;21.60;99.90
9049;DHT22;4559;47.252;9.592;2022-07-29T15:29:02;21.60;99.90
9049;DHT22;4559;47.252;9.592;2022-07-29T15:31:28;21.50;99.90
9049;DHT22;4559;47.252;9.592;2022-07-29T15:33:53;21.50;99.90
9049;DHT22;4559;47.252;9.592;2022-07-29T15:36:19;21.50;99.90
9049;DHT22;4559;47.252;9.592;2022-07-29T15:38:44;21.40;99.90
9049;DHT22;4559;47.252;9.592;2022-07-29T15:41:13;21.40;99.90
9049;DHT22;4559;47.252;9.592;2022-07-29T15:43:43;21.40;99.90
9049;DHT22;4559;47.252;9.592;2022-07-29T15:46:11;21.40;99.90
9049;DHT22;4559;47.252;9.592;2022-07-29T15:48:56;21.50;99.90
9049;DHT22;4559;47.252;9.592;2022-07-29T15:51:21;21.50;99.90
9049;DHT22;4559;47.252;9.592;2022-07-29T15:53:47;21.50;99.90
9049;DHT22;4559;47.252;9.592;2022-07-29T15:56:12;21.50;99.90
9049;DHT22;4559;47.252;9.592;2022-07-29T15:58:38;21.50;99.90
9049;DHT22;4559;47.252;9.592;2022-07-29T16:01:03;21.50;99.90
9049;DHT22;4559;47.252;9.592;2022-07-29T16:03:29;21.50;99.90
9049;DHT22;4559;47.252;9.592;2022-07-29T16:05:55;21.50;99.90
9049;DHT22;4559;47.252;9.592;2022-07-29T16:08:20;21.50;99.90
9049;DHT22;4559;47.252;9.592;2022-07-29T16:10:46;21.50;99.90
9049;DHT22;4559;47.252;9.592;2022-07-29T16:13:11;21.50;99.90
9049;DHT22;4559;47.252;9.592;2022-07-29T16:15:37;21.40;99.90
9049;DHT22;4559;47.252;9.592;2022-07-29T16:18:03;21.40;99.90
9049;DHT22;4559;47.252;9.592;2022-07-29T16:20:28;21.40;99.90
9049;DHT22;4559;47.252;9.592;2022-07-29T16:22:54;21.40;99.90
9049;DHT22;4559;47.252;9.592;2022-07-29T16:25:20;21.40;99.90
9049;DHT22;4559;47.252;9.592;2022-07-29T16:27:46;21.40;99.90
9049;DHT22;4559;47.252;9.592;2022-07-29T16:30:12;21.50;99.90
9049;DHT22;4559;47.252;9.592;2022-07-29T16:32:38;21.50;99.90
9049;DHT22;4559;47.252;9.592;2022-07-29T16:35:05;21.50;99.90
9049;DHT22;4559;47.252;9.592;2022-07-29T16:37:31;21.50;99.90
9049;DHT22;4559;47.252;9.592;2022-07-29T16:40:00;21.50;99.90
9049;DHT22;4559;47.252;9.592;2022-07-29T16:42:26;21.40;99.90
9049;DHT22;4559;47.252;9.592;2022-07-29T16:44:51;21.40;99.90
9049;DHT22;4559;47.252;9.592;2022-07-29T16:47:17;21.40;99.90
9049;DHT22;4559;47.252;9.592;2022-07-29T16:49:43;21.40;99.90